sensor_id;sensor_type;location;lat;lon;timestamp;temperature;humidity
14357;DHT22;7262;48.764;9.166;2023-07-13T00:02:05;20.90;99.90
14357;DHT22;7262;48.764;9.166;2023-07-13T00:04:32;21.00;99.90
14357;DHT22;7262;48.764;9.166;2023-07-13T00:06:58;20.90;99.90
14357;DHT22;7262;48.764;9.166;2023-07-13T00:09:26;20.90;99.90
14357;DHT22;7262;48.764;9.166;2023-07-13T00:11:55;20.80;99.90
14357;DHT22;7262;48.764;9.166;2023-07-13T00:14:22;20.80;99.90
14357;DHT22;7262;48.764;9.166;2023-07-13T00:16:49;20.70;99.90
14357;DHT22;7262;48.764;9.166;2023-07-13T00:19:18;20.70;99.90
14357;DHT22;7262;48.764;9.166;2023-07-13T00:21:44;20.60;99.90
14357;DHT22;7262;48.764;9.166;2023-07-13T00:24:12;20.60;99.90
14357;DHT22;7262;48.764;9.166;2023-07-13T00:26:41;20.60;99.90
14357;DHT22;7262;48.764;9.166;2023-07-13T00:29:11;20.60;99.90
14357;DHT22;7262;48.764;9.166;2023-07-13T00:31:38;20.60;99.90
14357;DHT22;7262;48.764;9.166;2023-07-13T00:34:06;20.50;99.90
14357;DHT22;7262;48.764;9.166;2023-07-13T00:36:34;20.50;99.90
14357;DHT22;7262;48.764;9.166;2023-07-13T00:39:01;20.50;99.90
14357;DHT22;7262;48.764;9.166;2023-07-13T00:41:31;20.40;99.90
14357;DHT22;7262;48.764;9.166;2023-07-13T00:43:58;20.40;99.90
14357;DHT22;7262;48.764;9.166;2023-07-13T00:46:25;20.40;99.90
14357;DHT22;7262;48.764;9.166;2023-07-13T00:48:53;20.40;99.90
14357;DHT22;7262;48.764;9.166;2023-07-13T00:51:22;20.40;99.90
14357;DHT22;7262;48.764;9.166;2023-07-13T00:53:53;20.40;99.90
14357;DHT22;7262;48.764;9.166;2023-07-13T00:56:21;20.40;99.90
14357;DHT22;7262;48.764;9.166;2023-07-13T00:58:48;20.40;99.90
14357;DHT22;7262;48.764;9.166;2023-07-13T01:01:15;20.40;99.90
14357;DHT22;7262;48.764;9.166;2023-07-13T01:03:44;20.30;99.90
14357;DHT22;7262;48.764;9.166;2023-07-13T01:06:12;20.30;99.90
14357;DHT22;7262;48.764;9.166;2023-07-13T01:08:39;20.30;99.90
14357;DHT22;7262;48.764;9.166;2023-07-13T01:11:08;20.30;99.90
14357;DHT22;7262;48.764;9.166;2023-07-13T01:13:35;20.30;99.90
14357;DHT22;7262;48.764;9.166;2023-07-13T01:16:02;20.30;99.90
14357;DHT22;7262;48.764;9.166;2023-07-13T01:18:31;20.30;99.90
14357;DHT22;7262;48.764;9.166;2023-07-13T01:21:00;20.20;99.90
14357;DHT22;7262;48.764;9.166;2023-07-13T01:23:27;20.20;99.90
14357;DHT22;7262;48.764;9.166;2023-07-13T01:25:54;20.10;99.90
14357;DHT22;7262;48.764;9.166;2023-07-13T01:28:22;20.00;99.90
14357;DHT22;7262;48.764;9.166;2023-07-13T01:30:48;20.00;99.90
14357;DHT22;7262;48.764;9.166;2023-07-13T01:33:16;19.90;99.90
14357;DHT22;7262;48.764;9.166;2023-07-13T01:35:44;19.80;99.90
14357;DHT22;7262;48.764;9.166;2023-07-13T01:38:14;19.70;99.90
14357;DHT22;7262;48.764;9.166;2023-07-13T01:40:42;19.70;99.90
14357;DHT22;7262;48.764;9.166;2023-07-13T01:43:09;19.60;99.90
14357;DHT22;7262;48.764;9.166;2023-07-13T01:45:36;19.50;99.90
14357;DHT22;7262;48.764;9.166;2023-07-13T01:48:03;19.50;99.90
14357;DHT22;7262;48.764;9.166;2023-07-13T01:50:32;19.40;99.90
14357;DHT22;7262;48.764;9.166;2023-07-13T01:52:58;19.40;99.90
14357;DHT22;7262;48.764;9.166;2023-07-13T01:55:27;19.30;99.90
14357;DHT22;7262;48.764;9.166;2023-07-13T01:57:54;19.20;99.90
14357;DHT22;7262;48.764;9.166;2023-07-13T02:00:22;19.10;99.90
14357;DHT22;7262;48.764;9.166;2023-07-13T02:02:50;19.10;99.90
14357;DHT22;7262;48.764;9.166;2023-07-13T02:05:17;19.10;99.90
14357;DHT22;7262;48.764;9.166;2023-07-13T02:07:46;19.00;99.90
14357;DHT22;7262;48.764;9.166;2023-07-13T02:10:15;18.90;99.90
14357;DHT22;7262;48.764;9.166;2023-07-13T02:12:43;18.80;99.90
14357;DHT22;7262;48.764;9.166;2023-07-13T02:15:11;18.70;99.90
14357;DHT22;7262;48.764;9.166;2023-07-13T02:17:37;18.70;99.90
14357;DHT22;7262;48.764;9.166;2023-07-13T02:20:05;18.60;99.90
14357;DHT22;7262;48.764;9.166;2023-07-13T02:22:32;18.40;99.90
14357;DHT22;7262;48.764;9.166;2023-07-13T02:24:59;18.40;99.90
14357;DHT22;7262;48.764;9.166;2023-07-13T02:27:27;18.40;99.90
14357;DHT22;7262;48.764;9.166;2023-07-13T02:29:55;18.30;99.90
14357;DHT22;7262;48.764;9.166;2023-07-13T02:32:22;18.30;99.90
14357;DHT22;7262;48.764;9.166;2023-07-13T02:34:51;18.30;99.90
14357;DHT22;7262;48.764;9.166;2023-07-13T02:37:19;18.20;99.90
14357;DHT22;7262;48.764;9.166;2023-07-13T02:39:46;18.20;99.90
14357;DHT22;7262;48.764;9.166;2023-07-13T02:42:15;18.10;99.90
14357;DHT22;7262;48.764;9.166;2023-07-13T02:44:42;18.00;99.90
14357;DHT22;7262;48.764;9.166;2023-07-13T02:47:10;17.90;99.90
14357;DHT22;7262;48.764;9.166;2023-07-13T02:49:38;17.90;99.90
14357;DHT22;7262;48.764;9.166;2023-07-13T02:52:06;17.90;99.90
14357;DHT22;7262;48.764;9.166;2023-07-13T02:54:42;17.90;99.90
14357;DHT22;7262;48.764;9.166;2023-07-13T02:57:09;17.80;99.90
14357;DHT22;7262;48.764;9.166;2023-07-13T02:59:36;17.70;99.90
14357;DHT22;7262;48.764;9.166;2023-07-13T03:02:03;17.60;99.90
14357;DHT22;7262;48.764;9.166;2023-07-13T03:04:32;17.60;99.90
14357;DHT22;7262;48.764;9.166;2023-07-13T03:07:02;17.60;99.90
14357;DHT22;7262;48.764;9.166;2023-07-13T03:09:32;17.60;99.90
14357;DHT22;7262;48.764;9.166;2023-07-13T03:12:00;17.60;99.90
14357;DHT22;7262;48.764;9.166;2023-07-13T03:14:27;17.70;99.90
14357;DHT22;7262;48.764;9.166;2023-07-13T03:16:54;17.70;99.90
14357;DHT22;7262;48.764;9.166;2023-07-13T03:19:21;17.70;99.90
14357;DHT22;7262;48.764;9.166;2023-07-13T03:21:50;17.70;99.90
14357;DHT22;7262;48.764;9.166;2023-07-13T03:24:17;17.60;99.90
14357;DHT22;7262;48.764;9.166;2023-07-13T03:26:44;17.50;99.90
14357;DHT22;7262;48.764;9.166;2023-07-13T03:29:11;17.50;99.90
14357;DHT22;7262;48.764;9.166;2023-07-13T03:31:39;17.60;99.90
14357;DHT22;7262;48.764;9.166;2023-07-13T03:34:06;17.70;99.90
14357;DHT22;7262;48.764;9.166;2023-07-13T03:39:17;17.80;99.90
14357;DHT22;7262;48.764;9.166;2023-07-13T03:41:44;18.00;99.90
14357;DHT22;7262;48.764;9.166;2023-07-13T03:44:11;18.00;99.90
14357;DHT22;7262;48.764;9.166;2023-07-13T03:46:37;18.10;99.90
14357;DHT22;7262;48.764;9.166;2023-07-13T03:49:05;18.10;99.90
14357;DHT22;7262;48.764;9.166;2023-07-13T03:51:31;18.20;99.90
14357;DHT22;7262;48.764;9.166;2023-07-13T03:53:58;18.20;99.90
14357;DHT22;7262;48.764;9.166;2023-07-13T03:56:29;18.30;99.90
14357;DHT22;7262;48.764;9.166;2023-07-13T03:58:58;18.20;99.90
14357;DHT22;7262;48.764;9.166;2023-07-13T04:01:25;18.20;99.90
14357;DHT22;7262;48.764;9.166;2023-07-13T04:03:52;18.10;99.90
14357;DHT22;7262;48.764;9.166;2023-07-13T04:06:20;18.20;99.90
14357;DHT22;7262;48.764;9.166;2023-07-13T04:08:48;18.30;99.90
14357;DHT22;7262;48.764;9.166;2023-07-13T04:11:16;18.20;99.90
14357;DHT22;7262;48.764;9.166;2023-07-13T04:13:44;18.30;99.90
14357;DHT22;7262;48.764;9.166;2023-07-13T04:16:11;18.30;99.90
14357;DHT22;7262;48.764;9.166;2023-07-13T04:18:39;18.40;99.90
14357;DHT22;7262;48.764;9.166;2023-07-13T04:21:06;18.40;99.90
14357;DHT22;7262;48.764;9.166;2023-07-13T04:23:33;18.40;99.90
14357;DHT22;7262;48.764;9.166;2023-07-13T04:26:00;18.50;99.90
14357;DHT22;7262;48.764;9.166;2023-07-13T04:28:30;18.50;99.90
14357;DHT22;7262;48.764;9.166;2023-07-13T04:31:04;18.60;99.90
14357;DHT22;7262;48.764;9.166;2023-07-13T04:33:31;18.60;99.90
14357;DHT22;7262;48.764;9.166;2023-07-13T04:35:59;18.50;99.90
14357;DHT22;7262;48.764;9.166;2023-07-13T04:38:28;18.50;99.90
14357;DHT22;7262;48.764;9.166;2023-07-13T04:41:03;18.50;99.90
14357;DHT22;7262;48.764;9.166;2023-07-13T04:43:31;18.40;99.90
14357;DHT22;7262;48.764;9.166;2023-07-13T04:46:10;18.50;99.90
14357;DHT22;7262;48.764;9.166;2023-07-13T04:48:37;18.50;99.90
14357;DHT22;7262;48.764;9.166;2023-07-13T04:51:04;18.40;99.90
14357;DHT22;7262;48.764;9.166;2023-07-13T04:53:31;18.30;99.90
14357;DHT22;7262;48.764;9.166;2023-07-13T04:55:59;18.40;99.90
14357;DHT22;7262;48.764;9.166;2023-07-13T04:58:27;18.40;99.90
14357;DHT22;7262;48.764;9.166;2023-07-13T05:00:55;18.40;99.90
14357;DHT22;7262;48.764;9.166;2023-07-13T05:03:28;18.50;99.90
14357;DHT22;7262;48.764;9.166;2023-07-13T05:05:55;18.60;99.90
14357;DHT22;7262;48.764;9.166;2023-07-13T05:08:22;18.60;99.90
14357;DHT22;7262;48.764;9.166;2023-07-13T05:10:49;18.70;99.90
14357;DHT22;7262;48.764;9.166;2023-07-13T05:13:16;18.80;99.90
14357;DHT22;7262;48.764;9.166;2023-07-13T05:15:43;19.00;99.90
14357;DHT22;7262;48.764;9.166;2023-07-13T05:18:09;19.20;99.90
14357;DHT22;7262;48.764;9.166;2023-07-13T05:20:38;19.30;99.90
14357;DHT22;7262;48.764;9.166;2023-07-13T05:23:05;19.50;99.90
14357;DHT22;7262;48.764;9.166;2023-07-13T05:25:32;19.50;99.90
14357;DHT22;7262;48.764;9.166;2023-07-13T05:27:59;19.50;99.90
14357;DHT22;7262;48.764;9.166;2023-07-13T05:30:26;19.70;99.90
14357;DHT22;7262;48.764;9.166;2023-07-13T05:32:53;19.80;99.90
14357;DHT22;7262;48.764;9.166;2023-07-13T05:35:21;19.90;99.90
14357;DHT22;7262;48.764;9.166;2023-07-13T05:37:49;20.00;99.90
14357;DHT22;7262;48.764;9.166;2023-07-13T05:40:16;20.20;99.90
14357;DHT22;7262;48.764;9.166;2023-07-13T05:42:43;20.30;99.90
14357;DHT22;7262;48.764;9.166;2023-07-13T05:45:10;20.40;99.90
14357;DHT22;7262;48.764;9.166;2023-07-13T05:47:37;20.60;99.90
14357;DHT22;7262;48.764;9.166;2023-07-13T05:50:05;20.40;99.90
14357;DHT22;7262;48.764;9.166;2023-07-13T05:52:32;20.30;99.90
14357;DHT22;7262;48.764;9.166;2023-07-13T05:57:36;20.10;99.90
14357;DHT22;7262;48.764;9.166;2023-07-13T06:00:03;20.20;99.90
14357;DHT22;7262;48.764;9.166;2023-07-13T06:02:42;20.00;99.90
14357;DHT22;7262;48.764;9.166;2023-07-13T06:05:10;19.90;99.90
14357;DHT22;7262;48.764;9.166;2023-07-13T06:07:37;19.90;99.90
14357;DHT22;7262;48.764;9.166;2023-07-13T06:10:06;20.10;99.90
14357;DHT22;7262;48.764;9.166;2023-07-13T06:12:33;20.20;99.90
14357;DHT22;7262;48.764;9.166;2023-07-13T06:15:02;20.90;99.90
14357;DHT22;7262;48.764;9.166;2023-07-13T06:17:29;22.10;99.90
14357;DHT22;7262;48.764;9.166;2023-07-13T06:25:09;24.30;99.90
14357;DHT22;7262;48.764;9.166;2023-07-13T06:45:46;30.10;99.90
14357;DHT22;7262;48.764;9.166;2023-07-13T06:48:16;30.40;99.90
14357;DHT22;7262;48.764;9.166;2023-07-13T06:53:19;29.80;99.20
14357;DHT22;7262;48.764;9.166;2023-07-13T06:55:46;28.90;99.90
14357;DHT22;7262;48.764;9.166;2023-07-13T06:58:14;28.40;99.90
14357;DHT22;7262;48.764;9.166;2023-07-13T07:00:41;28.00;99.90
14357;DHT22;7262;48.764;9.166;2023-07-13T07:03:09;28.00;99.90
14357;DHT22;7262;48.764;9.166;2023-07-13T07:05:36;28.80;99.90
14357;DHT22;7262;48.764;9.166;2023-07-13T07:08:03;29.50;99.50
14357;DHT22;7262;48.764;9.166;2023-07-13T07:10:30;30.30;97.50
14357;DHT22;7262;48.764;9.166;2023-07-13T07:12:58;31.00;96.50
14357;DHT22;7262;48.764;9.166;2023-07-13T07:15:26;31.10;94.60
14357;DHT22;7262;48.764;9.166;2023-07-13T07:17:53;31.70;93.70
14357;DHT22;7262;48.764;9.166;2023-07-13T07:20:23;31.20;93.00
14357;DHT22;7262;48.764;9.166;2023-07-13T07:22:50;31.80;92.50
14357;DHT22;7262;48.764;9.166;2023-07-13T07:27:55;30.60;92.60
14357;DHT22;7262;48.764;9.166;2023-07-13T07:30:22;31.50;91.30
14357;DHT22;7262;48.764;9.166;2023-07-13T07:32:49;31.50;90.40
14357;DHT22;7262;48.764;9.166;2023-07-13T07:35:16;31.00;91.10
14357;DHT22;7262;48.764;9.166;2023-07-13T07:37:46;31.30;91.30
14357;DHT22;7262;48.764;9.166;2023-07-13T07:40:13;31.30;90.60
14357;DHT22;7262;48.764;9.166;2023-07-13T07:42:40;31.70;90.50
14357;DHT22;7262;48.764;9.166;2023-07-13T07:47:51;31.70;89.80
14357;DHT22;7262;48.764;9.166;2023-07-13T07:50:20;32.20;85.90
14357;DHT22;7262;48.764;9.166;2023-07-13T07:52:48;31.40;87.90
14357;DHT22;7262;48.764;9.166;2023-07-13T07:55:15;32.00;85.00
14357;DHT22;7262;48.764;9.166;2023-07-13T07:57:42;32.30;84.60
14357;DHT22;7262;48.764;9.166;2023-07-13T08:00:09;31.00;85.20
14357;DHT22;7262;48.764;9.166;2023-07-13T08:02:37;31.10;85.20
14357;DHT22;7262;48.764;9.166;2023-07-13T08:05:04;32.20;83.80
14357;DHT22;7262;48.764;9.166;2023-07-13T08:07:31;32.20;83.80
14357;DHT22;7262;48.764;9.166;2023-07-13T08:09:59;31.80;83.30
14357;DHT22;7262;48.764;9.166;2023-07-13T08:12:27;31.80;84.30
14357;DHT22;7262;48.764;9.166;2023-07-13T08:17:36;32.10;82.70
14357;DHT22;7262;48.764;9.166;2023-07-13T08:20:03;32.10;82.90
14357;DHT22;7262;48.764;9.166;2023-07-13T08:22:30;32.10;82.70
14357;DHT22;7262;48.764;9.166;2023-07-13T08:24:59;32.10;82.10
14357;DHT22;7262;48.764;9.166;2023-07-13T08:27:28;31.80;82.30
14357;DHT22;7262;48.764;9.166;2023-07-13T08:29:57;32.00;82.90
14357;DHT22;7262;48.764;9.166;2023-07-13T08:32:23;32.20;82.80
14357;DHT22;7262;48.764;9.166;2023-07-13T08:34:50;32.70;82.10
14357;DHT22;7262;48.764;9.166;2023-07-13T08:37:19;31.50;82.50
14357;DHT22;7262;48.764;9.166;2023-07-13T08:39:53;31.70;83.30
14357;DHT22;7262;48.764;9.166;2023-07-13T08:42:26;32.50;81.50
14357;DHT22;7262;48.764;9.166;2023-07-13T08:44:57;32.60;81.30
14357;DHT22;7262;48.764;9.166;2023-07-13T08:47:27;32.00;82.90
14357;DHT22;7262;48.764;9.166;2023-07-13T08:49:54;31.00;83.40
14357;DHT22;7262;48.764;9.166;2023-07-13T08:52:25;30.50;86.30
14357;DHT22;7262;48.764;9.166;2023-07-13T08:54:55;30.50;85.70
14357;DHT22;7262;48.764;9.166;2023-07-13T08:57:26;30.40;83.80
14357;DHT22;7262;48.764;9.166;2023-07-13T08:59:56;29.80;85.80
14357;DHT22;7262;48.764;9.166;2023-07-13T09:02:26;30.50;87.40
14357;DHT22;7262;48.764;9.166;2023-07-13T09:04:54;31.00;85.80
14357;DHT22;7262;48.764;9.166;2023-07-13T09:07:26;32.30;85.20
14357;DHT22;7262;48.764;9.166;2023-07-13T09:09:59;33.30;82.30
14357;DHT22;7262;48.764;9.166;2023-07-13T09:12:34;32.90;81.50
14357;DHT22;7262;48.764;9.166;2023-07-13T09:15:17;31.50;83.30
14357;DHT22;7262;48.764;9.166;2023-07-13T09:17:48;29.40;86.40
14357;DHT22;7262;48.764;9.166;2023-07-13T09:20:17;28.00;90.40
14357;DHT22;7262;48.764;9.166;2023-07-13T09:22:48;27.30;91.00
14357;DHT22;7262;48.764;9.166;2023-07-13T09:25:21;28.00;91.80
14357;DHT22;7262;48.764;9.166;2023-07-13T09:28:10;29.40;90.00
14357;DHT22;7262;48.764;9.166;2023-07-13T09:30:43;30.30;88.00
14357;DHT22;7262;48.764;9.166;2023-07-13T09:33:11;30.60;86.70
14357;DHT22;7262;48.764;9.166;2023-07-13T09:35:39;31.60;85.30
14357;DHT22;7262;48.764;9.166;2023-07-13T09:43:20;28.60;87.10
14357;DHT22;7262;48.764;9.166;2023-07-13T09:45:47;27.60;90.00
14357;DHT22;7262;48.764;9.166;2023-07-13T09:48:14;26.60;90.90
14357;DHT22;7262;48.764;9.166;2023-07-13T09:50:42;26.30;92.30
14357;DHT22;7262;48.764;9.166;2023-07-13T09:53:13;27.80;91.20
14357;DHT22;7262;48.764;9.166;2023-07-13T09:55:41;29.80;89.00
14357;DHT22;7262;48.764;9.166;2023-07-13T09:58:16;30.30;86.50
14357;DHT22;7262;48.764;9.166;2023-07-13T10:00:53;30.70;85.10
14357;DHT22;7262;48.764;9.166;2023-07-13T10:03:23;31.00;83.80
14357;DHT22;7262;48.764;9.166;2023-07-13T10:05:51;29.30;86.00
14357;DHT22;7262;48.764;9.166;2023-07-13T10:10:59;28.50;88.30
14357;DHT22;7262;48.764;9.166;2023-07-13T10:13:27;28.60;89.00
14357;DHT22;7262;48.764;9.166;2023-07-13T10:15:59;29.10;86.50
14357;DHT22;7262;48.764;9.166;2023-07-13T10:18:28;29.60;85.30
14357;DHT22;7262;48.764;9.166;2023-07-13T10:23:31;30.10;85.70
14357;DHT22;7262;48.764;9.166;2023-07-13T10:28:35;30.50;83.40
14357;DHT22;7262;48.764;9.166;2023-07-13T10:31:11;30.60;82.60
14357;DHT22;7262;48.764;9.166;2023-07-13T10:33:38;31.20;81.40
14357;DHT22;7262;48.764;9.166;2023-07-13T10:36:12;31.10;81.60
14357;DHT22;7262;48.764;9.166;2023-07-13T10:38:40;31.60;82.40
14357;DHT22;7262;48.764;9.166;2023-07-13T10:43:42;31.80;80.00
14357;DHT22;7262;48.764;9.166;2023-07-13T10:46:13;31.20;81.10
14357;DHT22;7262;48.764;9.166;2023-07-13T10:48:42;30.70;81.50
14357;DHT22;7262;48.764;9.166;2023-07-13T10:51:13;29.90;82.00
14357;DHT22;7262;48.764;9.166;2023-07-13T10:53:40;29.90;82.70
14357;DHT22;7262;48.764;9.166;2023-07-13T10:56:16;30.10;83.20
14357;DHT22;7262;48.764;9.166;2023-07-13T10:58:45;30.40;83.30
14357;DHT22;7262;48.764;9.166;2023-07-13T11:01:15;30.60;84.00
14357;DHT22;7262;48.764;9.166;2023-07-13T11:03:47;30.80;81.90
14357;DHT22;7262;48.764;9.166;2023-07-13T11:06:16;31.00;82.00
14357;DHT22;7262;48.764;9.166;2023-07-13T11:08:51;30.50;82.80
14357;DHT22;7262;48.764;9.166;2023-07-13T11:11:36;30.10;82.50
14357;DHT22;7262;48.764;9.166;2023-07-13T11:14:04;29.50;84.10
14357;DHT22;7262;48.764;9.166;2023-07-13T11:16:43;29.70;84.90
14357;DHT22;7262;48.764;9.166;2023-07-13T11:19:28;29.40;85.30
14357;DHT22;7262;48.764;9.166;2023-07-13T11:22:19;28.70;85.30
14357;DHT22;7262;48.764;9.166;2023-07-13T11:24:49;28.20;88.80
14357;DHT22;7262;48.764;9.166;2023-07-13T11:27:21;27.70;88.60
14357;DHT22;7262;48.764;9.166;2023-07-13T11:29:51;27.50;89.60
14357;DHT22;7262;48.764;9.166;2023-07-13T11:32:23;27.80;90.10
14357;DHT22;7262;48.764;9.166;2023-07-13T11:34:52;28.10;90.10
14357;DHT22;7262;48.764;9.166;2023-07-13T11:37:20;27.70;89.80
14357;DHT22;7262;48.764;9.166;2023-07-13T11:39:48;28.80;89.10
14357;DHT22;7262;48.764;9.166;2023-07-13T11:42:16;30.20;86.70
14357;DHT22;7262;48.764;9.166;2023-07-13T11:44:45;31.20;83.50
14357;DHT22;7262;48.764;9.166;2023-07-13T11:47:14;31.40;83.10
14357;DHT22;7262;48.764;9.166;2023-07-13T11:49:48;31.80;82.40
14357;DHT22;7262;48.764;9.166;2023-07-13T11:54:52;31.00;82.20
14357;DHT22;7262;48.764;9.166;2023-07-13T12:00:03;32.20;80.40
14357;DHT22;7262;48.764;9.166;2023-07-13T12:02:33;32.40;80.10
14357;DHT22;7262;48.764;9.166;2023-07-13T12:05:03;31.20;81.40
14357;DHT22;7262;48.764;9.166;2023-07-13T12:07:31;30.40;82.30
14357;DHT22;7262;48.764;9.166;2023-07-13T12:10:00;29.50;84.40
14357;DHT22;7262;48.764;9.166;2023-07-13T12:12:30;29.20;87.20
14357;DHT22;7262;48.764;9.166;2023-07-13T12:14:59;30.60;85.70
14357;DHT22;7262;48.764;9.166;2023-07-13T12:22:52;31.80;80.10
14357;DHT22;7262;48.764;9.166;2023-07-13T12:30:43;32.80;77.90
14357;DHT22;7262;48.764;9.166;2023-07-13T12:33:16;32.70;76.60
14357;DHT22;7262;48.764;9.166;2023-07-13T12:40:57;29.60;82.10
14357;DHT22;7262;48.764;9.166;2023-07-13T12:43:25;29.50;82.90
14357;DHT22;7262;48.764;9.166;2023-07-13T12:48:28;31.80;79.70
14357;DHT22;7262;48.764;9.166;2023-07-13T12:50:56;32.70;77.10
14357;DHT22;7262;48.764;9.166;2023-07-13T12:56:15;32.50;76.80
14357;DHT22;7262;48.764;9.166;2023-07-13T12:58:45;32.60;76.90
14357;DHT22;7262;48.764;9.166;2023-07-13T13:04:00;32.60;75.40
14357;DHT22;7262;48.764;9.166;2023-07-13T13:06:34;32.90;75.30
14357;DHT22;7262;48.764;9.166;2023-07-13T13:16:53;33.10;76.30
14357;DHT22;7262;48.764;9.166;2023-07-13T13:19:21;33.70;73.80
14357;DHT22;7262;48.764;9.166;2023-07-13T13:22:03;33.70;73.70
14357;DHT22;7262;48.764;9.166;2023-07-13T13:24:31;33.10;73.40
14357;DHT22;7262;48.764;9.166;2023-07-13T13:26:58;32.60;74.80
14357;DHT22;7262;48.764;9.166;2023-07-13T13:32:03;32.90;73.10
14357;DHT22;7262;48.764;9.166;2023-07-13T13:39:47;33.60;73.90
14357;DHT22;7262;48.764;9.166;2023-07-13T13:42:16;33.50;72.00
14357;DHT22;7262;48.764;9.166;2023-07-13T14:00:17;29.50;77.30
14357;DHT22;7262;48.764;9.166;2023-07-13T14:02:45;29.80;78.50
14357;DHT22;7262;48.764;9.166;2023-07-13T14:05:13;30.50;77.10
14357;DHT22;7262;48.764;9.166;2023-07-13T14:07:42;31.10;76.20
14357;DHT22;7262;48.764;9.166;2023-07-13T14:20:32;31.90;75.70
14357;DHT22;7262;48.764;9.166;2023-07-13T14:48:55;29.90;77.90
14357;DHT22;7262;48.764;9.166;2023-07-13T14:54:11;29.50;78.10
14357;DHT22;7262;48.764;9.166;2023-07-13T14:56:38;29.10;79.90
14357;DHT22;7262;48.764;9.166;2023-07-13T15:04:17;28.60;79.80
14357;DHT22;7262;48.764;9.166;2023-07-13T15:06:53;28.40;80.30
14357;DHT22;7262;48.764;9.166;2023-07-13T15:09:21;27.90;81.40
14357;DHT22;7262;48.764;9.166;2023-07-13T15:11:51;27.60;82.70
14357;DHT22;7262;48.764;9.166;2023-07-13T15:14:18;27.80;82.90
14357;DHT22;7262;48.764;9.166;2023-07-13T15:16:46;27.90;82.90
14357;DHT22;7262;48.764;9.166;2023-07-13T15:19:13;27.90;83.80
14357;DHT22;7262;48.764;9.166;2023-07-13T15:21:42;28.20;83.00
14357;DHT22;7262;48.764;9.166;2023-07-13T15:24:09;28.20;83.30
14357;DHT22;7262;48.764;9.166;2023-07-13T15:26:36;28.40;83.90
14357;DHT22;7262;48.764;9.166;2023-07-13T15:29:04;28.00;82.70
14357;DHT22;7262;48.764;9.166;2023-07-13T15:31:31;27.80;83.40
14357;DHT22;7262;48.764;9.166;2023-07-13T15:33:59;27.60;83.80
14357;DHT22;7262;48.764;9.166;2023-07-13T15:36:26;27.50;84.40
14357;DHT22;7262;48.764;9.166;2023-07-13T15:38:55;27.50;84.50
14357;DHT22;7262;48.764;9.166;2023-07-13T15:41:23;27.30;84.70
14357;DHT22;7262;48.764;9.166;2023-07-13T15:43:51;27.20;85.20
14357;DHT22;7262;48.764;9.166;2023-07-13T15:46:19;27.10;84.90
14357;DHT22;7262;48.764;9.166;2023-07-13T15:53:59;27.40;84.60
14357;DHT22;7262;48.764;9.166;2023-07-13T16:01:41;27.50;83.70
14357;DHT22;7262;48.764;9.166;2023-07-13T16:14:32;26.80;85.20
14357;DHT22;7262;48.764;9.166;2023-07-13T16:17:02;26.80;85.40
14357;DHT22;7262;48.764;9.166;2023-07-13T16:19:31;26.70;85.60
14357;DHT22;7262;48.764;9.166;2023-07-13T16:21:59;26.80;85.50
14357;DHT22;7262;48.764;9.166;2023-07-13T16:24:31;26.60;85.80
14357;DHT22;7262;48.764;9.166;2023-07-13T16:26:59;26.70;85.50
14357;DHT22;7262;48.764;9.166;2023-07-13T16:29:29;26.80;85.40
14357;DHT22;7262;48.764;9.166;2023-07-13T16:32:00;26.60;85.40
14357;DHT22;7262;48.764;9.166;2023-07-13T16:34:28;26.50;86.10
14357;DHT22;7262;48.764;9.166;2023-07-13T16:36:55;26.60;86.90
14357;DHT22;7262;48.764;9.166;2023-07-13T16:39:22;26.70;86.20
14357;DHT22;7262;48.764;9.166;2023-07-13T16:41:52;26.50;85.50
14357;DHT22;7262;48.764;9.166;2023-07-13T16:44:20;26.60;86.30
14357;DHT22;7262;48.764;9.166;2023-07-13T16:46:48;26.40;86.40
14357;DHT22;7262;48.764;9.166;2023-07-13T16:51:59;26.60;87.00
14357;DHT22;7262;48.764;9.166;2023-07-13T16:54:28;26.60;86.80
14357;DHT22;7262;48.764;9.166;2023-07-13T16:56:56;26.30;87.00
14357;DHT22;7262;48.764;9.166;2023-07-13T16:59:28;26.20;87.60
14357;DHT22;7262;48.764;9.166;2023-07-13T17:01:57;26.30;87.90
14357;DHT22;7262;48.764;9.166;2023-07-13T17:04:25;26.20;88.20
14357;DHT22;7262;48.764;9.166;2023-07-13T17:06:52;26.20;88.20
14357;DHT22;7262;48.764;9.166;2023-07-13T17:09:21;25.90;88.50
14357;DHT22;7262;48.764;9.166;2023-07-13T17:11:49;25.90;90.00
14357;DHT22;7262;48.764;9.166;2023-07-13T17:14:18;26.00;89.20
14357;DHT22;7262;48.764;9.166;2023-07-13T17:16:49;26.20;88.90
14357;DHT22;7262;48.764;9.166;2023-07-13T17:19:17;26.10;88.60
14357;DHT22;7262;48.764;9.166;2023-07-13T17:21:44;25.80;89.90
14357;DHT22;7262;48.764;9.166;2023-07-13T17:24:14;25.80;90.10
14357;DHT22;7262;48.764;9.166;2023-07-13T17:26:51;25.70;90.20
14357;DHT22;7262;48.764;9.166;2023-07-13T17:34:29;25.80;89.90
14357;DHT22;7262;48.764;9.166;2023-07-13T19:34:10;23.30;98.60
14357;DHT22;7262;48.764;9.166;2023-07-13T19:36:39;23.30;98.60
14357;DHT22;7262;48.764;9.166;2023-07-13T19:39:08;23.30;98.60
14357;DHT22;7262;48.764;9.166;2023-07-13T19:41:38;23.10;98.60
14357;DHT22;7262;48.764;9.166;2023-07-13T19:44:08;23.30;99.10
14357;DHT22;7262;48.764;9.166;2023-07-13T19:46:41;23.30;99.10
14357;DHT22;7262;48.764;9.166;2023-07-13T19:49:10;23.30;99.00
14357;DHT22;7262;48.764;9.166;2023-07-13T19:51:41;23.20;99.20
14357;DHT22;7262;48.764;9.166;2023-07-13T19:54:09;23.20;99.30
14357;DHT22;7262;48.764;9.166;2023-07-13T19:56:37;23.20;99.90
14357;DHT22;7262;48.764;9.166;2023-07-13T19:59:09;23.10;99.90
14357;DHT22;7262;48.764;9.166;2023-07-13T20:01:41;23.10;99.90
14357;DHT22;7262;48.764;9.166;2023-07-13T20:04:10;23.00;99.90
14357;DHT22;7262;48.764;9.166;2023-07-13T20:06:37;22.70;99.90
14357;DHT22;7262;48.764;9.166;2023-07-13T20:09:11;22.70;99.90
14357;DHT22;7262;48.764;9.166;2023-07-13T20:11:39;22.60;99.90
14357;DHT22;7262;48.764;9.166;2023-07-13T20:14:10;22.50;99.90
14357;DHT22;7262;48.764;9.166;2023-07-13T20:16:42;22.40;99.90
14357;DHT22;7262;48.764;9.166;2023-07-13T20:19:12;22.30;99.90
14357;DHT22;7262;48.764;9.166;2023-07-13T20:21:39;22.20;99.90
14357;DHT22;7262;48.764;9.166;2023-07-13T20:24:10;22.10;99.90
14357;DHT22;7262;48.764;9.166;2023-07-13T20:26:40;22.20;99.90
14357;DHT22;7262;48.764;9.166;2023-07-13T20:29:06;22.20;99.90
14357;DHT22;7262;48.764;9.166;2023-07-13T20:31:34;22.10;99.90
14357;DHT22;7262;48.764;9.166;2023-07-13T20:34:01;22.10;99.90
14357;DHT22;7262;48.764;9.166;2023-07-13T20:36:33;22.00;99.90
14357;DHT22;7262;48.764;9.166;2023-07-13T20:39:01;21.90;99.90
14357;DHT22;7262;48.764;9.166;2023-07-13T20:41:28;22.00;99.90
14357;DHT22;7262;48.764;9.166;2023-07-13T20:43:55;21.90;99.90
14357;DHT22;7262;48.764;9.166;2023-07-13T20:46:22;21.80;99.90
14357;DHT22;7262;48.764;9.166;2023-07-13T20:48:49;21.80;99.90
14357;DHT22;7262;48.764;9.166;2023-07-13T20:51:17;21.70;99.90
14357;DHT22;7262;48.764;9.166;2023-07-13T20:53:45;21.60;99.90
14357;DHT22;7262;48.764;9.166;2023-07-13T20:56:13;21.50;99.90
14357;DHT22;7262;48.764;9.166;2023-07-13T20:58:40;21.40;99.90
14357;DHT22;7262;48.764;9.166;2023-07-13T21:01:10;21.40;99.90